createdAt,value
2017-11-23T00:00:18.985Z,68.71
2017-11-23T00:01:19.309Z,68.61
2017-11-23T00:02:19.043Z,68.52
2017-11-23T00:03:19.087Z,68.52
2017-11-23T00:04:19.108Z,68.52
2017-11-23T00:05:19.140Z,68.71
2017-11-23T00:06:19.173Z,68.71
2017-11-23T00:07:19.202Z,68.71
2017-11-23T00:08:19.537Z,68.71
2017-11-23T00:09:19.268Z,68.52
2017-11-23T00:10:19.358Z,68.32
2017-11-23T00:11:19.328Z,68.23
2017-11-23T00:12:19.360Z,68.32
2017-11-23T00:13:19.391Z,68.23
2017-11-23T00:14:19.437Z,68.32
2017-11-23T00:15:19.805Z,68.32
2017-11-23T00:16:19.494Z,68.32
2017-11-23T00:17:19.525Z,68.71
2017-11-23T00:18:19.558Z,68.52
2017-11-23T00:19:19.585Z,68.52
2017-11-23T00:20:19.617Z,68.71
2017-11-23T00:21:19.660Z,68.71
2017-11-23T00:22:19.980Z,68.42
2017-11-23T00:23:19.717Z,68.42
2017-11-23T00:24:19.742Z,68.42
2017-11-23T00:25:19.770Z,68.42
2017-11-23T00:26:19.810Z,68.42
2017-11-23T00:27:19.837Z,68.99
2017-11-23T00:28:19.865Z,68.13
2017-11-23T00:29:20.197Z,68.13
2017-11-23T00:30:19.929Z,69.09
2017-11-23T00:31:19.965Z,67.94
2017-11-23T00:32:19.993Z,68.71
2017-11-23T00:33:20.023Z,68.13
2017-11-23T00:34:20.055Z,68.32
2017-11-23T00:35:20.088Z,68.13
2017-11-23T00:36:20.427Z,68.32
2017-11-23T00:37:20.151Z,68.42
2017-11-23T00:38:20.389Z,68.13
2017-11-23T00:39:20.213Z,68.90
2017-11-23T00:40:20.245Z,68.42
2017-11-23T00:41:20.274Z,68.42
2017-11-23T00:42:20.311Z,68.52
2017-11-23T00:43:20.638Z,68.04
2017-11-23T00:44:20.371Z,68.32
2017-11-23T00:45:20.401Z,68.13
2017-11-23T00:46:20.437Z,68.42
2017-11-23T00:47:20.480Z,67.94
2017-11-23T00:48:20.499Z,68.32
2017-11-23T00:49:20.530Z,68.80
2017-11-23T00:50:20.860Z,68.23
2017-11-23T00:51:20.600Z,67.94
2017-11-23T00:52:20.631Z,67.94
2017-11-23T00:53:20.659Z,68.23
2017-11-23T00:54:20.690Z,68.90
2017-11-23T00:55:20.716Z,68.23
2017-11-23T00:56:20.753Z,68.23
2017-11-23T00:57:21.083Z,68.71
2017-11-23T00:58:20.828Z,67.94
2017-11-23T00:59:20.843Z,67.94
2017-11-23T01:00:20.881Z,69.19
2017-11-23T01:01:20.912Z,68.80
2017-11-23T01:02:20.949Z,68.13
2017-11-23T01:03:20.974Z,68.23
2017-11-23T01:04:21.354Z,68.13
2017-11-23T01:05:21.038Z,68.13
2017-11-23T01:06:21.065Z,68.23
2017-11-23T01:07:21.098Z,68.13
2017-11-23T01:08:21.132Z,68.23
2017-11-23T01:09:21.165Z,68.32
2017-11-23T01:10:21.190Z,68.32
2017-11-23T01:11:21.557Z,68.13
2017-11-23T01:12:21.260Z,68.80
2017-11-23T01:13:21.288Z,68.13
2017-11-23T01:14:21.331Z,68.42
2017-11-23T01:15:21.354Z,69.19
2017-11-23T01:16:21.390Z,68.23
2017-11-23T01:17:21.414Z,69.19
2017-11-23T01:18:21.750Z,68.23
2017-11-23T01:19:21.475Z,68.13
2017-11-23T01:20:21.508Z,68.80
2017-11-23T01:21:21.542Z,68.42
2017-11-23T01:22:21.574Z,68.42
2017-11-23T01:23:21.602Z,68.61
2017-11-23T01:24:21.631Z,68.71
2017-11-23T01:25:21.977Z,68.61
2017-11-23T01:26:21.705Z,68.61
2017-11-23T01:27:21.746Z,68.52
2017-11-23T01:28:21.771Z,68.52
2017-11-23T01:29:21.805Z,68.71
2017-11-23T01:30:21.842Z,68.61
2017-11-23T01:31:21.855Z,68.61
2017-11-23T01:32:22.192Z,68.52
2017-11-23T01:33:21.922Z,68.52
2017-11-23T01:34:21.957Z,68.80
2017-11-23T01:35:21.981Z,68.71
2017-11-23T01:36:22.012Z,68.71
2017-11-23T01:37:22.047Z,68.71
2017-11-23T01:38:22.083Z,68.71
2017-11-23T01:39:22.420Z,68.71
2017-11-23T01:40:22.140Z,68.32
2017-11-23T01:41:22.173Z,68.23
2017-11-23T01:42:22.206Z,68.32
2017-11-23T01:43:22.240Z,68.23
2017-11-23T01:44:22.328Z,68.32
2017-11-23T01:45:22.295Z,68.42
2017-11-23T01:46:22.645Z,68.23
2017-11-23T01:47:22.367Z,68.23
2017-11-23T01:48:22.397Z,68.42
2017-11-23T01:49:22.433Z,68.52
2017-11-23T01:50:22.460Z,68.42
2017-11-23T01:51:22.486Z,68.42
2017-11-23T01:52:22.520Z,68.42
2017-11-23T01:53:22.847Z,68.42
2017-11-23T01:54:22.579Z,68.32
2017-11-23T01:55:22.609Z,68.32
2017-11-23T01:56:22.659Z,68.42
2017-11-23T01:57:22.679Z,68.32
2017-11-23T01:58:22.705Z,68.32
2017-11-23T01:59:22.735Z,68.32
2017-11-23T02:00:23.078Z,68.32
2017-11-23T02:01:22.800Z,68.32
2017-11-23T02:02:22.833Z,68.13
2017-11-23T02:03:22.867Z,68.32
2017-11-23T02:04:22.903Z,68.32
2017-11-23T02:05:22.938Z,68.32
2017-11-23T02:06:22.958Z,68.42
2017-11-23T02:07:23.292Z,68.42
2017-11-23T02:08:23.024Z,68.32
2017-11-23T02:09:23.099Z,68.13
2017-11-23T02:10:23.089Z,68.13
2017-11-23T02:11:23.117Z,68.32
2017-11-23T02:12:23.146Z,68.23
2017-11-23T02:13:23.182Z,68.23
2017-11-23T02:14:23.525Z,68.32
2017-11-23T02:15:23.259Z,68.13
2017-11-23T02:16:23.290Z,68.23
2017-11-23T02:17:23.327Z,68.32
2017-11-23T02:18:23.339Z,68.23
2017-11-23T02:19:23.366Z,68.23
2017-11-23T02:20:23.701Z,68.04
2017-11-23T02:21:23.435Z,68.23
2017-11-23T02:22:23.499Z,68.04
2017-11-23T02:23:23.501Z,68.42
2017-11-23T02:24:23.532Z,68.13
2017-11-23T02:25:23.566Z,68.23
2017-11-23T02:26:23.889Z,68.42
2017-11-23T02:27:23.628Z,68.42
2017-11-23T02:28:23.656Z,68.23
2017-11-23T02:29:23.696Z,68.61
2017-11-23T02:30:23.718Z,68.32
2017-11-23T02:31:23.749Z,67.94
2017-11-23T02:32:24.106Z,67.94
2017-11-23T02:33:23.846Z,67.94
2017-11-23T02:34:23.881Z,68.13
2017-11-23T02:35:23.886Z,68.23
2017-11-23T02:36:23.909Z,68.13
2017-11-23T02:37:23.938Z,68.04
2017-11-23T02:38:23.967Z,68.04
2017-11-23T02:39:24.313Z,68.23
2017-11-23T02:40:24.040Z,68.32
2017-11-23T02:41:24.067Z,68.32
2017-11-23T02:42:24.102Z,68.13
2017-11-23T02:43:24.127Z,68.42
2017-11-23T02:44:24.158Z,68.04
2017-11-23T02:45:24.192Z,68.13
2017-11-23T02:46:24.524Z,68.23
2017-11-23T02:47:24.336Z,68.23
2017-11-23T02:48:24.300Z,68.23
2017-11-23T02:49:24.330Z,68.23
2017-11-23T02:50:24.374Z,68.42
2017-11-23T02:51:24.376Z,68.42
2017-11-23T02:52:24.408Z,68.42
2017-11-23T02:53:24.742Z,68.42
2017-11-23T02:54:24.549Z,68.42
2017-11-23T02:55:24.530Z,68.32
2017-11-23T02:56:24.538Z,68.23
2017-11-23T02:57:24.569Z,68.23
2017-11-23T02:58:24.604Z,68.04
2017-11-23T02:59:24.637Z,67.94
2017-11-23T03:00:24.969Z,68.04
2017-11-23T03:01:24.704Z,68.04
2017-11-23T03:02:24.781Z,68.23
2017-11-23T03:03:24.764Z,68.23
2017-11-23T03:04:24.786Z,68.23
2017-11-23T03:05:24.817Z,68.23
2017-11-23T03:06:24.850Z,68.32
2017-11-23T03:07:25.257Z,68.04
2017-11-23T03:08:24.915Z,68.23
2017-11-23T03:09:24.943Z,68.32
2017-11-23T03:10:25.036Z,68.32
2017-11-23T03:11:25.010Z,68.32
2017-11-23T03:12:25.047Z,68.13
2017-11-23T03:13:25.087Z,67.94
2017-11-23T03:14:25.510Z,68.32
2017-11-23T03:15:25.153Z,67.94
2017-11-23T03:16:25.172Z,68.32
2017-11-23T03:17:25.196Z,68.23
2017-11-23T03:18:25.230Z,68.32
2017-11-23T03:19:25.287Z,68.04
2017-11-23T03:20:25.332Z,68.04
2017-11-23T03:21:25.676Z,68.23
2017-11-23T03:22:25.359Z,68.52
2017-11-23T03:23:25.419Z,68.04
2017-11-23T03:24:25.425Z,68.04
2017-11-23T03:25:25.463Z,68.04
2017-11-23T03:26:25.540Z,68.13
2017-11-23T03:27:25.546Z,68.42
2017-11-23T03:28:25.885Z,68.13
2017-11-23T03:29:25.578Z,68.23
2017-11-23T03:30:25.620Z,68.23
2017-11-23T03:31:25.712Z,68.23
2017-11-23T03:32:25.700Z,68.42
2017-11-23T03:33:25.738Z,68.32
2017-11-23T03:34:25.736Z,68.23
2017-11-23T03:35:26.076Z,68.42
2017-11-23T03:36:25.838Z,68.32
2017-11-23T03:37:25.845Z,68.42
2017-11-23T03:38:25.865Z,68.13
2017-11-23T03:39:25.892Z,68.23
2017-11-23T03:40:25.933Z,68.23
2017-11-23T03:41:25.956Z,68.42
2017-11-23T03:42:26.337Z,68.32
2017-11-23T03:43:26.017Z,68.23
2017-11-23T03:44:26.089Z,68.23
2017-11-23T03:45:26.086Z,68.23
2017-11-23T03:46:26.115Z,68.13
2017-11-23T03:47:26.145Z,68.42
2017-11-23T03:48:26.174Z,68.13
2017-11-23T03:49:26.515Z,68.42
2017-11-23T03:50:26.249Z,68.13
2017-11-23T03:51:26.277Z,68.04
2017-11-23T03:52:26.302Z,68.13
2017-11-23T03:53:26.335Z,68.23
2017-11-23T03:54:26.375Z,68.13
2017-11-23T03:55:26.394Z,68.23
2017-11-23T03:56:26.738Z,68.23
2017-11-23T03:57:26.481Z,68.23
2017-11-23T03:58:26.494Z,68.04
2017-11-23T03:59:26.520Z,67.94
2017-11-23T04:00:26.561Z,68.52
2017-11-23T04:01:26.591Z,68.23
2017-11-23T04:02:26.662Z,68.23
2017-11-23T04:03:26.973Z,68.13
2017-11-23T04:04:26.689Z,68.13
2017-11-23T04:05:26.801Z,68.32
2017-11-23T04:06:26.745Z,68.32
2017-11-23T04:07:26.780Z,68.13
2017-11-23T04:08:26.820Z,68.23
2017-11-23T04:09:27.152Z,68.23
2017-11-23T04:10:26.872Z,68.32
2017-11-23T04:11:26.994Z,68.32
2017-11-23T04:12:26.983Z,68.23
2017-11-23T04:13:27.014Z,68.13
2017-11-23T04:14:27.002Z,68.13
2017-11-23T04:15:27.330Z,68.32
2017-11-23T04:16:27.064Z,67.84
2017-11-23T04:17:27.128Z,67.74
2017-11-23T04:18:27.144Z,67.74
2017-11-23T04:19:27.167Z,67.94
2017-11-23T04:20:27.193Z,67.84
2017-11-23T04:21:27.519Z,67.74
2017-11-23T04:22:27.397Z,67.94
2017-11-23T04:23:27.305Z,67.84
2017-11-23T04:24:27.330Z,67.84
2017-11-23T04:25:27.368Z,67.94
2017-11-23T04:26:27.376Z,67.84
2017-11-23T04:27:27.426Z,67.74
2017-11-23T04:28:27.741Z,67.74
2017-11-23T04:29:27.472Z,67.84
2017-11-23T04:30:27.535Z,67.65
2017-11-23T04:31:27.531Z,67.84
2017-11-23T04:32:27.571Z,67.84
2017-11-23T04:33:27.598Z,67.74
2017-11-23T04:34:27.631Z,67.84
2017-11-23T04:35:28.011Z,67.74
2017-11-23T04:36:27.691Z,67.74
2017-11-23T04:37:27.777Z,67.94
2017-11-23T04:38:27.753Z,68.04
2017-11-23T04:39:27.785Z,67.84
2017-11-23T04:40:27.824Z,67.84
2017-11-23T04:41:27.850Z,67.74
2017-11-23T04:42:28.177Z,68.04
2017-11-23T04:43:27.911Z,67.94
2017-11-23T04:44:27.951Z,68.04
2017-11-23T04:45:28.021Z,67.94
2017-11-23T04:46:28.011Z,67.84
2017-11-23T04:47:28.087Z,67.84
2017-11-23T04:48:28.068Z,67.94
2017-11-23T04:49:29.161Z,67.74
2017-11-23T04:50:28.171Z,68.04
2017-11-23T04:51:28.162Z,67.65
2017-11-23T04:52:28.198Z,68.04
2017-11-23T04:53:28.263Z,67.84
2017-11-23T04:54:28.280Z,67.94
2017-11-23T04:55:28.289Z,68.04
2017-11-23T04:56:28.630Z,68.04
2017-11-23T04:57:28.356Z,68.04
2017-11-23T04:58:28.386Z,67.94
2017-11-23T04:59:28.414Z,67.84
2017-11-23T05:00:28.445Z,67.55
2017-11-23T05:01:28.476Z,67.94
2017-11-23T05:02:28.513Z,67.74
2017-11-23T05:03:28.851Z,68.04
2017-11-23T05:04:28.578Z,67.94
2017-11-23T05:05:28.604Z,68.04
2017-11-23T05:06:28.661Z,68.04
2017-11-23T05:07:28.678Z,67.74
2017-11-23T05:08:28.697Z,67.94
2017-11-23T05:09:28.731Z,67.84
2017-11-23T05:10:29.068Z,68.32
2017-11-23T05:11:28.802Z,68.32
2017-11-23T05:12:28.834Z,68.23
2017-11-23T05:13:28.857Z,68.23
2017-11-23T05:14:28.888Z,68.42
2017-11-23T05:15:28.935Z,68.52
2017-11-23T05:16:28.955Z,68.23
2017-11-23T05:17:29.367Z,68.13
2017-11-23T05:18:29.063Z,68.32
2017-11-23T05:19:29.054Z,68.32
2017-11-23T05:20:29.086Z,68.13
2017-11-23T05:21:29.113Z,68.32
2017-11-23T05:22:29.208Z,68.32
2017-11-23T05:23:29.205Z,68.32
2017-11-23T05:24:29.511Z,68.23
2017-11-23T05:25:29.235Z,68.04
2017-11-23T05:26:29.277Z,68.32
2017-11-23T05:27:29.320Z,68.32
2017-11-23T05:28:29.333Z,68.23
2017-11-23T05:29:29.371Z,68.52
2017-11-23T05:30:29.406Z,68.32
2017-11-23T05:31:29.727Z,68.42
2017-11-23T05:32:29.475Z,68.23
2017-11-23T05:33:29.495Z,68.32
2017-11-23T05:34:29.523Z,68.13
2017-11-23T05:35:29.570Z,68.23
2017-11-23T05:36:29.585Z,68.23
2017-11-23T05:37:29.621Z,68.04
2017-11-23T05:38:29.960Z,68.13
2017-11-23T05:39:29.711Z,67.94
2017-11-23T05:40:29.709Z,68.23
2017-11-23T05:41:29.742Z,68.04
2017-11-23T05:42:29.789Z,67.94
2017-11-23T05:43:29.804Z,68.13
2017-11-23T05:44:29.840Z,68.23
2017-11-23T05:45:30.177Z,68.04
2017-11-23T05:46:29.907Z,68.23
2017-11-23T05:47:29.985Z,68.23
2017-11-23T05:48:29.987Z,68.23
2017-11-23T05:49:29.995Z,68.32
2017-11-23T05:50:30.031Z,68.23
2017-11-23T05:51:30.085Z,67.84
2017-11-23T05:52:30.456Z,67.74
2017-11-23T05:53:30.129Z,67.84
2017-11-23T05:54:30.164Z,67.84
2017-11-23T05:55:30.253Z,67.74
2017-11-23T05:56:30.228Z,68.04
2017-11-23T05:57:30.276Z,67.94
2017-11-23T05:58:30.583Z,67.94
2017-11-23T05:59:30.313Z,67.94
2017-11-23T06:00:30.343Z,68.04
2017-11-23T06:01:30.386Z,67.94
2017-11-23T06:02:30.412Z,67.94
2017-11-23T06:03:30.439Z,67.94
2017-11-23T06:04:30.774Z,67.74
2017-11-23T06:05:30.509Z,68.04
2017-11-23T06:06:30.535Z,67.74
2017-11-23T06:07:31.024Z,67.84
2017-11-23T06:08:30.643Z,67.65
2017-11-23T06:09:30.629Z,67.55
2017-11-23T06:10:30.961Z,67.74
2017-11-23T06:11:30.700Z,67.94
2017-11-23T06:12:30.727Z,67.84
2017-11-23T06:13:30.755Z,67.94
2017-11-23T06:14:30.786Z,67.94
2017-11-23T06:15:30.825Z,67.74
2017-11-23T06:16:30.861Z,67.84
2017-11-23T06:17:31.192Z,67.65
2017-11-23T06:18:30.916Z,67.74
2017-11-23T06:19:30.943Z,67.65
2017-11-23T06:20:30.980Z,67.55
2017-11-23T06:21:31.024Z,67.74
2017-11-23T06:22:31.045Z,67.36
2017-11-23T06:23:31.070Z,67.55
2017-11-23T06:24:31.404Z,67.46
2017-11-23T06:25:31.144Z,67.74
2017-11-23T06:26:31.179Z,67.55
2017-11-23T06:27:31.198Z,67.65
2017-11-23T06:28:31.232Z,67.55
2017-11-23T06:29:31.274Z,67.55
2017-11-23T06:30:31.300Z,67.65
2017-11-23T06:31:31.627Z,67.46
2017-11-23T06:32:31.355Z,67.74
2017-11-23T06:33:31.402Z,67.55
2017-11-23T06:34:31.422Z,67.55
2017-11-23T06:35:31.453Z,67.74
2017-11-23T06:36:31.485Z,67.65
2017-11-23T06:37:31.524Z,67.55
2017-11-23T06:38:31.869Z,67.55
2017-11-23T06:39:31.584Z,67.94
2017-11-23T06:40:31.616Z,67.74
2017-11-23T06:41:31.645Z,67.84
2017-11-23T06:42:31.674Z,67.65
2017-11-23T06:43:31.705Z,67.55
2017-11-23T06:44:31.753Z,67.65
2017-11-23T06:45:32.121Z,67.84
2017-11-23T06:46:31.799Z,67.84
2017-11-23T06:47:31.833Z,67.84
2017-11-23T06:48:31.867Z,67.65
2017-11-23T06:49:31.897Z,68.04
2017-11-23T06:50:31.940Z,67.84
2017-11-23T06:51:31.958Z,67.46
2017-11-23T06:52:32.291Z,67.94
2017-11-23T06:53:32.027Z,67.55
2017-11-23T06:54:32.061Z,67.84
2017-11-23T06:55:32.086Z,67.65
2017-11-23T06:56:32.119Z,67.74
2017-11-23T06:57:32.147Z,67.84
2017-11-23T06:58:32.196Z,67.74
2017-11-23T06:59:32.512Z,67.84
2017-11-23T07:00:32.247Z,67.94
2017-11-23T07:01:32.322Z,67.74
2017-11-23T07:02:32.307Z,67.65
2017-11-23T07:03:32.341Z,67.55
2017-11-23T07:04:32.377Z,67.65
2017-11-23T07:05:32.403Z,67.55
2017-11-23T07:06:32.784Z,67.65
2017-11-23T07:07:32.470Z,67.74
2017-11-23T07:08:32.497Z,67.84
2017-11-23T07:09:32.530Z,67.84
2017-11-23T07:10:32.578Z,67.55
2017-11-23T07:11:32.592Z,67.55
2017-11-23T07:12:32.629Z,67.55
2017-11-23T07:13:32.955Z,67.55
2017-11-23T07:14:32.702Z,67.26
2017-11-23T07:15:32.721Z,67.65
2017-11-23T07:16:32.751Z,67.36
2017-11-23T07:17:32.821Z,67.36
2017-11-23T07:18:32.830Z,67.36
2017-11-23T07:19:32.857Z,66.97
2017-11-23T07:20:33.333Z,67.26
2017-11-23T07:21:32.911Z,66.97
2017-11-23T07:22:32.952Z,67.07
2017-11-23T07:23:32.975Z,67.07
2017-11-23T07:24:33.012Z,66.97
2017-11-23T07:25:33.038Z,67.07
2017-11-23T07:26:33.070Z,67.07
2017-11-23T07:27:33.400Z,67.07
2017-11-23T07:28:33.135Z,67.36
2017-11-23T07:29:33.167Z,67.07
2017-11-23T07:30:33.211Z,67.07
2017-11-23T07:31:33.228Z,66.97
2017-11-23T07:32:33.258Z,67.07
2017-11-23T07:33:33.295Z,67.26
2017-11-23T07:34:33.627Z,67.26
2017-11-23T07:35:33.357Z,67.26
2017-11-23T07:36:33.436Z,67.07
2017-11-23T07:37:33.419Z,66.97
2017-11-23T07:38:33.483Z,67.07
2017-11-23T07:39:33.485Z,67.16
2017-11-23T07:40:33.817Z,67.16
2017-11-23T07:41:33.577Z,66.78
2017-11-23T07:42:33.597Z,66.59
2017-11-23T07:43:33.605Z,66.69
2017-11-23T07:44:33.645Z,66.59
2017-11-23T07:45:33.671Z,66.97
2017-11-23T07:46:34.117Z,66.88
2017-11-23T07:47:33.733Z,66.49
2017-11-23T07:48:33.765Z,66.59
2017-11-23T07:49:33.892Z,66.88
2017-11-23T07:50:33.832Z,66.59
2017-11-23T07:51:33.868Z,66.69
2017-11-23T07:52:34.196Z,66.59
2017-11-23T07:53:34.735Z,66.69
2017-11-23T07:54:33.961Z,66.78
2017-11-23T07:55:33.995Z,66.78
2017-11-23T07:56:34.021Z,66.78
2017-11-23T07:57:34.052Z,66.69
2017-11-23T07:58:34.084Z,66.78
2017-11-23T07:59:34.471Z,66.78
2017-11-23T08:00:34.153Z,66.59
2017-11-23T08:01:34.178Z,66.78
2017-11-23T08:02:34.217Z,66.97
2017-11-23T08:03:34.248Z,66.97
2017-11-23T08:04:34.273Z,66.88
2017-11-23T08:05:34.307Z,66.78
2017-11-23T08:06:34.644Z,67.07
2017-11-23T08:07:34.376Z,66.88
2017-11-23T08:08:34.401Z,66.97
2017-11-23T08:09:34.437Z,66.49
2017-11-23T08:10:34.468Z,66.39
2017-11-23T08:11:34.502Z,66.97
2017-11-23T08:12:34.538Z,66.97
2017-11-23T08:13:34.864Z,66.78
2017-11-23T08:14:34.596Z,66.69
2017-11-23T08:15:34.630Z,66.78
2017-11-23T08:16:34.659Z,66.20
2017-11-23T08:17:34.689Z,66.43
2017-11-23T08:18:34.737Z,66.11
2017-11-23T08:19:34.753Z,66.20
2017-11-23T08:20:35.094Z,66.49
2017-11-23T08:21:34.821Z,66.39
2017-11-23T08:22:34.856Z,66.52
2017-11-23T08:23:34.879Z,66.43
2017-11-23T08:24:35.112Z,65.95
2017-11-23T08:25:34.948Z,65.81
2017-11-23T08:26:34.978Z,65.95
2017-11-23T08:27:35.378Z,65.95
2017-11-23T08:29:35.076Z,66.11
2017-11-23T08:30:35.126Z,66.14
2017-11-23T08:31:35.138Z,66.04
2017-11-23T08:32:35.185Z,66.01
2017-11-23T08:33:35.265Z,66.04
2017-11-23T08:34:35.594Z,65.95
2017-11-23T08:35:35.285Z,66.14
2017-11-23T08:36:35.303Z,65.95
2017-11-23T08:37:35.341Z,66.14
2017-11-23T08:38:35.415Z,65.85
2017-11-23T08:39:35.396Z,65.75
2017-11-23T08:40:35.445Z,65.85
2017-11-23T08:41:35.752Z,65.37
2017-11-23T08:42:35.528Z,65.66
2017-11-23T08:43:35.521Z,65.56
2017-11-23T08:44:35.591Z,65.56
2017-11-23T08:45:35.625Z,65.56
2017-11-23T08:46:35.614Z,65.47
2017-11-23T08:47:35.682Z,65.66
2017-11-23T08:48:35.981Z,65.66
2017-11-23T08:49:35.711Z,65.85
2017-11-23T08:50:35.745Z,65.75
2017-11-23T08:51:35.802Z,65.75
2017-11-23T08:52:35.815Z,65.75
2017-11-23T08:53:35.836Z,65.37
2017-11-23T08:54:35.870Z,65.37
2017-11-23T08:55:36.202Z,65.85
2017-11-23T08:56:35.934Z,65.75
2017-11-23T08:57:35.966Z,65.56
2017-11-23T08:58:36.000Z,65.56
2017-11-23T08:59:36.036Z,65.56
2017-11-23T09:00:36.112Z,65.66
2017-11-23T09:01:36.107Z,65.27
2017-11-23T09:02:36.430Z,65.17
2017-11-23T09:03:36.169Z,65.47
2017-11-23T09:04:36.207Z,65.37
2017-11-23T09:05:36.234Z,65.27
2017-11-23T09:06:36.264Z,64.98
2017-11-23T09:07:36.296Z,64.98
2017-11-23T09:08:36.331Z,65.08
2017-11-23T09:09:36.651Z,65.08
2017-11-23T09:10:36.386Z,65.08
2017-11-23T09:11:36.423Z,65.56
2017-11-23T09:12:36.453Z,65.37
2017-11-23T09:13:36.484Z,64.89
2017-11-23T09:14:36.518Z,64.69
2017-11-23T09:15:36.565Z,65.27
2017-11-23T09:16:36.874Z,65.17
2017-11-23T09:17:36.606Z,64.69
2017-11-23T09:18:36.643Z,64.59
2017-11-23T09:19:36.679Z,65.27
2017-11-23T09:20:36.712Z,65.37
2017-11-23T09:21:36.735Z,65.17
2017-11-23T09:22:36.767Z,65.37
2017-11-23T09:23:37.109Z,64.89
2017-11-23T09:24:36.832Z,65.08
2017-11-23T09:25:36.867Z,65.37
2017-11-23T09:26:36.900Z,65.08
2017-11-23T09:27:36.938Z,65.01
2017-11-23T09:28:36.968Z,64.69
2017-11-23T09:29:36.991Z,64.69
2017-11-23T09:30:37.325Z,64.79
2017-11-23T09:31:37.062Z,65.08
2017-11-23T09:32:37.091Z,64.79
2017-11-23T09:33:37.121Z,65.08
2017-11-23T09:34:37.153Z,65.17
2017-11-23T09:35:37.194Z,64.98
2017-11-23T09:36:37.571Z,65.08
2017-11-23T09:37:37.252Z,65.17
2017-11-23T09:38:37.319Z,64.50
2017-11-23T09:39:37.314Z,64.59
2017-11-23T09:40:37.346Z,64.72
2017-11-23T09:41:37.380Z,64.50
2017-11-23T09:42:37.711Z,64.50
2017-11-23T09:43:37.443Z,64.31
2017-11-23T09:44:37.481Z,64.34
2017-11-23T09:45:37.508Z,64.34
2017-11-23T09:46:37.541Z,64.34
2017-11-23T09:47:37.583Z,64.34
2017-11-23T09:48:37.908Z,64.24
2017-11-23T09:49:37.636Z,64.43
2017-11-23T09:50:37.670Z,64.43
2017-11-23T09:51:37.733Z,64.31
2017-11-23T09:52:37.742Z,64.53
2017-11-23T09:53:37.767Z,64.34
2017-11-23T09:54:37.802Z,64.24
2017-11-23T09:55:38.131Z,64.24
2017-11-23T09:56:37.862Z,64.34
2017-11-23T09:57:37.895Z,64.53
2017-11-23T09:58:37.928Z,64.15
2017-11-23T09:59:38.002Z,64.15
2017-11-23T10:00:37.995Z,64.05
2017-11-23T10:01:38.071Z,64.15
2017-11-23T10:02:38.357Z,64.34
2017-11-23T10:03:38.094Z,64.05
2017-11-23T10:04:38.132Z,64.15
2017-11-23T10:05:38.178Z,64.34
2017-11-23T10:06:38.194Z,64.05
2017-11-23T10:07:38.226Z,63.67
2017-11-23T10:08:38.265Z,64.05
2017-11-23T10:09:38.585Z,63.85
2017-11-23T10:10:38.317Z,63.85
2017-11-23T10:11:38.360Z,63.85
2017-11-23T10:12:38.380Z,63.95
2017-11-23T10:13:38.412Z,63.57
2017-11-23T10:14:38.449Z,63.67
2017-11-23T10:15:38.479Z,63.67
2017-11-23T10:16:38.815Z,63.85
2017-11-23T10:17:38.548Z,63.85
2017-11-23T10:18:38.576Z,63.95
2017-11-23T10:19:38.608Z,63.76
2017-11-23T10:20:38.639Z,63.76
2017-11-23T10:21:38.675Z,63.67
2017-11-23T10:22:38.713Z,63.76
2017-11-23T10:23:39.051Z,63.95
2017-11-23T10:24:38.777Z,63.85
2017-11-23T10:25:38.802Z,63.67
2017-11-23T10:26:38.832Z,63.95
2017-11-23T10:27:38.873Z,63.85
2017-11-23T10:28:38.898Z,63.95
2017-11-23T10:29:38.940Z,63.28
2017-11-23T10:30:39.270Z,63.95
2017-11-23T10:31:39.005Z,63.28
2017-11-23T10:32:39.031Z,63.95
2017-11-23T10:33:39.071Z,63.67
2017-11-23T10:34:39.092Z,63.47
2017-11-23T10:35:39.130Z,63.67
2017-11-23T10:36:39.159Z,63.37
2017-11-23T10:37:39.504Z,62.99
2017-11-23T10:38:39.224Z,62.99
2017-11-23T10:39:39.260Z,63.37
2017-11-23T10:40:39.297Z,63.28
2017-11-23T10:41:39.323Z,63.37
2017-11-23T10:42:39.358Z,63.37
2017-11-23T10:43:39.387Z,62.99
2017-11-23T10:44:39.715Z,63.09
2017-11-23T10:45:39.451Z,63.28
2017-11-23T10:46:39.486Z,63.28
2017-11-23T10:48:39.549Z,63.28
2017-11-23T10:49:39.582Z,63.18
2017-11-23T10:50:39.612Z,63.37
2017-11-23T10:51:39.956Z,62.99
2017-11-23T10:52:39.699Z,63.28
2017-11-23T10:53:39.711Z,63.37
2017-11-23T10:54:39.747Z,63.37
2017-11-23T10:55:39.771Z,63.37
2017-11-23T10:56:39.807Z,63.28
2017-11-23T10:57:39.844Z,63.28
2017-11-23T10:58:40.171Z,63.28
2017-11-23T10:59:39.932Z,63.47
2017-11-23T11:00:39.943Z,62.89
2017-11-23T11:01:39.968Z,63.37
2017-11-23T11:02:40.004Z,63.57
2017-11-23T11:03:40.034Z,63.47
2017-11-23T11:04:40.074Z,63.67
2017-11-23T11:05:40.453Z,63.76
2017-11-23T11:06:40.135Z,63.28
2017-11-23T11:07:40.161Z,63.37
2017-11-23T11:08:40.213Z,63.47
2017-11-23T11:09:40.228Z,63.28
2017-11-23T11:10:40.276Z,63.47
2017-11-23T11:11:40.296Z,63.18
2017-11-23T11:12:40.701Z,63.09
2017-11-23T11:13:40.359Z,63.28
2017-11-23T11:14:40.396Z,63.28
2017-11-23T11:15:40.476Z,62.99
2017-11-23T11:16:40.522Z,62.89
2017-11-23T11:17:40.485Z,63.18
2017-11-23T11:18:40.818Z,62.99
2017-11-23T11:19:40.551Z,62.70
2017-11-23T11:20:40.607Z,62.89
2017-11-23T11:21:40.629Z,62.89
2017-11-23T11:22:40.657Z,62.99
2017-11-23T11:23:40.684Z,62.70
2017-11-23T11:24:41.017Z,62.60
2017-11-23T11:25:40.749Z,62.99
2017-11-23T11:26:40.787Z,63.09
2017-11-23T11:27:40.824Z,62.92
2017-11-23T11:28:40.849Z,62.73
2017-11-23T11:29:40.879Z,63.12
2017-11-23T11:30:41.268Z,63.02
2017-11-23T11:31:40.946Z,62.54
2017-11-23T11:32:40.984Z,62.54
2017-11-23T11:33:41.007Z,62.63
2017-11-23T11:34:41.093Z,62.92
2017-11-23T11:35:41.078Z,62.54
2017-11-23T11:36:41.150Z,62.73
2017-11-23T11:37:41.455Z,62.34
2017-11-23T11:38:41.175Z,62.54
2017-11-23T11:39:41.207Z,62.54
2017-11-23T11:40:41.255Z,62.54
2017-11-23T11:41:41.271Z,62.54
2017-11-23T11:42:41.303Z,62.54
2017-11-23T11:43:41.333Z,62.54
2017-11-23T11:44:41.701Z,62.54
2017-11-23T11:45:41.407Z,62.73
2017-11-23T11:46:41.435Z,62.63
2017-11-23T11:47:41.626Z,62.34
2017-11-23T11:48:41.530Z,62.63
2017-11-23T11:49:41.532Z,62.34
2017-11-23T11:50:41.577Z,62.15
2017-11-23T11:51:41.902Z,62.25
2017-11-23T11:52:41.631Z,62.05
2017-11-23T11:53:41.663Z,62.25
2017-11-23T11:54:41.700Z,62.34
2017-11-23T11:55:41.749Z,62.54
2017-11-23T11:56:41.763Z,62.44
2017-11-23T11:57:41.793Z,62.34
2017-11-23T11:58:42.129Z,62.25
2017-11-23T11:59:41.866Z,62.05
2017-11-23T12:00:41.901Z,61.96
2017-11-23T12:01:41.929Z,62.15
2017-11-23T12:02:41.960Z,62.34
2017-11-23T12:03:41.997Z,62.34
2017-11-23T12:04:42.033Z,62.05
2017-11-23T12:05:42.354Z,62.25
2017-11-23T12:06:42.094Z,62.70
2017-11-23T12:07:42.130Z,62.73
2017-11-23T12:08:42.155Z,62.31
2017-11-23T12:09:42.187Z,62.22
2017-11-23T12:10:42.220Z,62.54
2017-11-23T12:11:42.262Z,62.51
2017-11-23T12:12:42.585Z,62.51
2017-11-23T12:13:42.317Z,62.51
2017-11-23T12:14:42.346Z,62.63
2017-11-23T12:15:42.391Z,62.60
2017-11-23T12:16:42.414Z,62.41
2017-11-23T12:17:42.450Z,62.51
2017-11-23T12:18:42.479Z,62.70
2017-11-23T12:19:42.811Z,62.51
2017-11-23T12:20:42.542Z,62.41
2017-11-23T12:21:42.574Z,62.31
2017-11-23T12:22:42.609Z,62.41
2017-11-23T12:23:42.644Z,62.70
2017-11-23T12:24:42.672Z,62.31
2017-11-23T12:25:42.717Z,62.70
2017-11-23T12:26:43.040Z,62.51
2017-11-23T12:27:42.785Z,62.41
2017-11-23T12:28:42.805Z,62.70
2017-11-23T12:29:42.835Z,62.41
2017-11-23T12:30:42.868Z,62.89
2017-11-23T12:31:42.905Z,62.41
2017-11-23T12:32:42.933Z,62.41
2017-11-23T12:33:43.268Z,62.51
2017-11-23T12:34:43.002Z,62.41
2017-11-23T12:35:43.048Z,62.79
2017-11-23T12:36:43.067Z,62.51
2017-11-23T12:37:43.095Z,62.41
2017-11-23T12:38:43.135Z,62.51
2017-11-23T12:39:43.164Z,62.41
2017-11-23T12:40:43.506Z,62.79
2017-11-23T12:41:43.245Z,62.51
2017-11-23T12:42:43.258Z,62.60
2017-11-23T12:43:43.288Z,62.51
2017-11-23T12:44:43.326Z,62.70
2017-11-23T12:45:43.355Z,62.60
2017-11-23T12:46:43.390Z,62.70
2017-11-23T12:48:43.805Z,62.51
2017-11-23T12:49:43.486Z,62.51
2017-11-23T12:50:43.553Z,62.51
2017-11-23T12:51:43.549Z,62.79
2017-11-23T12:52:43.580Z,62.51
2017-11-23T12:53:43.616Z,62.15
2017-11-23T12:54:43.649Z,62.02
2017-11-23T12:55:43.983Z,62.82